createdAt,value
2018-09-19T00:00:26.182Z,66.40
2018-09-19T00:02:58.297Z,66.40
2018-09-19T00:05:27.347Z,66.60
2018-09-19T00:07:56.511Z,66.50
2018-09-19T00:10:25.686Z,66.50
2018-09-19T00:12:54.782Z,66.60
2018-09-19T00:15:23.867Z,66.60
2018-09-19T00:17:53.072Z,66.60
2018-09-19T00:20:22.273Z,66.70
2018-09-19T00:22:51.344Z,66.70
2018-09-19T00:25:20.433Z,66.80
2018-09-19T00:27:49.583Z,66.80
2018-09-19T00:30:18.619Z,66.90
2018-09-19T00:32:47.923Z,66.90
2018-09-19T00:35:17.016Z,66.90
2018-09-19T00:37:46.086Z,67.00
2018-09-19T00:40:15.144Z,67.00
2018-09-19T00:42:44.482Z,67.10
2018-09-19T00:45:13.792Z,67.10
2018-09-19T00:47:42.854Z,67.20
2018-09-19T00:50:11.978Z,67.30
2018-09-19T00:52:40.994Z,67.30
2018-09-19T00:55:10.114Z,67.40
2018-09-19T00:57:39.198Z,67.50
2018-09-19T01:00:08.350Z,67.50
2018-09-19T01:02:37.494Z,67.50
2018-09-19T01:05:06.786Z,68.20
2018-09-19T01:07:35.874Z,67.60
2018-09-19T01:10:07.883Z,67.60
2018-09-19T01:12:36.909Z,67.50
2018-09-19T01:15:05.962Z,67.60
2018-09-19T01:17:35.057Z,67.70
2018-09-19T01:20:04.192Z,67.90
2018-09-19T01:22:33.183Z,68.00
2018-09-19T01:25:02.540Z,68.20
2018-09-19T01:27:31.606Z,68.10
2018-09-19T01:30:00.729Z,68.10
2018-09-19T01:32:29.798Z,68.30
2018-09-19T01:34:58.814Z,68.60
2018-09-19T01:37:27.878Z,69.00
2018-09-19T01:39:56.981Z,68.80
2018-09-19T01:42:26.109Z,68.80
2018-09-19T01:44:55.204Z,68.80
2018-09-19T01:47:24.386Z,68.80
2018-09-19T01:49:53.495Z,68.80
2018-09-19T01:52:22.559Z,68.90
2018-09-19T01:54:51.641Z,69.10
2018-09-19T01:57:20.688Z,69.10
2018-09-19T01:59:49.749Z,69.10
2018-09-19T02:02:18.872Z,69.10
2018-09-19T02:04:47.945Z,69.10
2018-09-19T02:07:17.171Z,69.10
2018-09-19T02:09:46.263Z,69.20
2018-09-19T02:12:15.309Z,69.20
2018-09-19T02:14:44.434Z,69.10
2018-09-19T02:17:13.534Z,69.20
2018-09-19T02:19:42.627Z,69.30
2018-09-19T02:22:11.728Z,69.30
2018-09-19T02:24:40.831Z,69.30
2018-09-19T02:27:09.934Z,69.30
2018-09-19T02:29:39.027Z,69.30
2018-09-19T02:32:10.215Z,69.30
2018-09-19T02:34:39.782Z,69.20
2018-09-19T02:37:08.847Z,69.40
2018-09-19T02:39:37.980Z,69.20
2018-09-19T02:42:07.020Z,69.30
2018-09-19T02:44:36.024Z,69.30
2018-09-19T02:47:05.131Z,69.30
2018-09-19T02:49:34.215Z,69.40
2018-09-19T02:52:03.302Z,69.60
2018-09-19T02:54:32.383Z,69.60
2018-09-19T02:57:01.446Z,69.60
2018-09-19T02:59:30.585Z,69.60
2018-09-19T03:01:59.674Z,69.70
2018-09-19T03:04:28.685Z,69.90
2018-09-19T03:06:57.774Z,70.20
2018-09-19T03:09:26.883Z,70.30
2018-09-19T03:11:56.040Z,70.30
2018-09-19T03:14:25.185Z,70.30
2018-09-19T03:16:54.270Z,70.30
2018-09-19T03:19:23.380Z,70.30
2018-09-19T03:21:52.505Z,70.30
2018-09-19T03:24:21.549Z,70.40
2018-09-19T03:26:50.649Z,70.30
2018-09-19T03:29:19.754Z,71.10
2018-09-19T03:31:48.862Z,70.40
2018-09-19T03:34:17.983Z,70.40
2018-09-19T03:36:47.144Z,70.50
2018-09-19T03:39:16.268Z,70.40
2018-09-19T03:41:45.317Z,70.40
2018-09-19T03:44:14.392Z,70.50
2018-09-19T03:46:43.389Z,70.60
2018-09-19T03:49:12.439Z,71.30
2018-09-19T03:51:41.443Z,70.70
2018-09-19T03:54:12.469Z,70.70
2018-09-19T03:56:41.562Z,70.70
2018-09-19T03:59:10.644Z,70.70
2018-09-19T04:01:39.754Z,70.70
2018-09-19T04:04:08.837Z,70.70
2018-09-19T04:06:37.909Z,70.70
2018-09-19T04:09:12.373Z,70.70
2018-09-19T04:11:41.959Z,70.80
2018-09-19T04:14:11.951Z,70.80
2018-09-19T04:16:41.565Z,71.00
2018-09-19T04:19:10.650Z,71.00
2018-09-19T04:21:54.314Z,71.00
2018-09-19T04:24:23.432Z,71.20
2018-09-19T04:26:52.609Z,71.20
2018-09-19T04:29:21.710Z,71.30
2018-09-19T04:31:50.817Z,71.50
2018-09-19T04:34:19.953Z,71.50
2018-09-19T04:36:48.987Z,71.60
2018-09-19T04:39:18.078Z,71.70
2018-09-19T04:41:47.204Z,71.90
2018-09-19T04:44:16.293Z,72.10
2018-09-19T04:46:45.391Z,72.20
2018-09-19T04:49:14.531Z,72.10
2018-09-19T04:51:43.591Z,72.20
2018-09-19T04:54:12.645Z,71.80
2018-09-19T04:56:41.756Z,72.30
2018-09-19T04:59:10.899Z,72.40
2018-09-19T05:01:40.048Z,72.50
2018-09-19T05:04:09.119Z,72.60
2018-09-19T05:06:38.113Z,72.70
2018-09-19T05:09:08.581Z,72.90
2018-09-19T05:11:37.759Z,73.00
2018-09-19T05:14:07.258Z,73.00
2018-09-19T05:16:36.267Z,73.20
2018-09-19T05:19:05.475Z,73.30
2018-09-19T05:21:34.553Z,73.50
2018-09-19T05:24:03.517Z,73.50
2018-09-19T05:26:32.553Z,73.80
2018-09-19T05:29:01.701Z,74.00
2018-09-19T05:31:30.851Z,74.20
2018-09-19T05:33:59.939Z,75.10
2018-09-19T05:36:29.023Z,74.40
2018-09-19T05:38:58.165Z,74.50
2018-09-19T05:41:27.225Z,74.70
2018-09-19T05:43:56.320Z,74.80
2018-09-19T05:46:25.435Z,74.90
2018-09-19T05:48:54.535Z,75.10
2018-09-19T05:51:23.851Z,75.20
2018-09-19T05:53:52.881Z,75.50
2018-09-19T05:56:22.043Z,75.60
2018-09-19T05:58:51.678Z,75.80
2018-09-19T06:01:20.698Z,75.90
2018-09-19T06:03:49.792Z,76.10
2018-09-19T06:06:18.781Z,76.20
2018-09-19T06:08:47.852Z,76.60
2018-09-19T06:11:16.876Z,77.00
2018-09-19T06:13:46.169Z,77.40
2018-09-19T06:16:15.285Z,79.10
2018-09-19T06:18:44.291Z,79.80
2018-09-19T06:21:13.369Z,82.20
2018-09-19T06:23:42.475Z,81.30
2018-09-19T06:26:11.527Z,81.20
2018-09-19T06:28:40.532Z,81.40
2018-09-19T06:31:09.634Z,82.40
2018-09-19T06:33:38.665Z,82.10
2018-09-19T06:36:07.723Z,82.20
2018-09-19T06:38:36.802Z,82.40
2018-09-19T06:41:06.045Z,82.50
2018-09-19T06:43:35.111Z,82.30
2018-09-19T06:46:04.327Z,82.00
2018-09-19T06:48:33.374Z,82.00
2018-09-19T06:51:02.502Z,81.80
2018-09-19T06:53:32.666Z,82.30
2018-09-19T06:56:01.743Z,82.00
2018-09-19T06:58:30.756Z,82.30
2018-09-19T07:00:59.837Z,82.40
2018-09-19T07:03:28.902Z,83.30
2018-09-19T07:05:58.049Z,82.90
2018-09-19T07:08:27.039Z,83.80
2018-09-19T07:10:56.055Z,83.30
2018-09-19T07:13:25.058Z,83.50
2018-09-19T07:15:54.148Z,83.80
2018-09-19T07:18:23.168Z,84.00
2018-09-19T07:20:52.286Z,84.10
2018-09-19T07:23:21.722Z,84.00
2018-09-19T07:25:50.774Z,84.10
2018-09-19T07:28:19.859Z,84.50
2018-09-19T07:30:48.953Z,85.20
2018-09-19T07:33:18.026Z,85.30
2018-09-19T07:35:47.157Z,84.80
2018-09-19T07:38:16.206Z,85.70
2018-09-19T07:40:45.186Z,85.70
2018-09-19T07:43:14.247Z,85.50
2018-09-19T07:45:43.337Z,85.40
2018-09-19T07:48:12.724Z,85.20
2018-09-19T07:50:41.806Z,85.10
2018-09-19T07:53:10.820Z,84.80
2018-09-19T07:55:39.877Z,85.90
2018-09-19T07:58:08.874Z,85.60
2018-09-19T08:00:37.986Z,85.40
2018-09-19T08:03:06.934Z,85.80
2018-09-19T08:05:35.961Z,85.50
2018-09-19T08:08:04.941Z,85.30
2018-09-19T08:10:33.958Z,85.00
2018-09-19T08:13:04.118Z,85.00
2018-09-19T08:15:33.193Z,85.10
2018-09-19T08:18:02.262Z,85.40
2018-09-19T08:20:31.290Z,85.60
2018-09-19T08:22:59.896Z,85.40
2018-09-19T08:25:29.055Z,85.30
2018-09-19T08:27:58.254Z,85.90
2018-09-19T08:30:27.314Z,85.30
2018-09-19T08:32:56.333Z,85.40
2018-09-19T08:35:25.467Z,85.20
2018-09-19T08:37:54.441Z,85.00
2018-09-19T08:40:23.515Z,84.60
2018-09-19T08:42:52.513Z,84.40
2018-09-19T08:45:21.723Z,84.60
2018-09-19T08:47:50.914Z,84.40
2018-09-19T08:50:20.037Z,84.20
2018-09-19T08:52:49.190Z,84.60
2018-09-19T08:55:18.407Z,84.50
2018-09-19T08:57:47.454Z,84.10
2018-09-19T09:00:16.543Z,84.10
2018-09-19T09:02:45.569Z,84.00
2018-09-19T09:05:14.690Z,83.00
2018-09-19T09:07:43.681Z,83.60
2018-09-19T09:10:12.814Z,83.60
2018-09-19T09:12:41.961Z,83.20
2018-09-19T09:15:11.445Z,83.10
2018-09-19T09:17:40.499Z,83.00
2018-09-19T09:20:09.582Z,83.00
2018-09-19T09:22:38.677Z,82.80
2018-09-19T09:25:07.863Z,82.90
2018-09-19T09:27:36.958Z,82.80
2018-09-19T09:30:06.035Z,82.60
2018-09-19T09:32:35.056Z,82.50
2018-09-19T09:35:04.204Z,82.40
2018-09-19T09:37:33.317Z,82.30
2018-09-19T09:40:05.916Z,82.70
2018-09-19T09:42:35.015Z,81.60
2018-09-19T09:45:04.329Z,81.90
2018-09-19T09:47:33.634Z,81.30
2018-09-19T09:50:04.200Z,81.30
2018-09-19T09:52:33.242Z,81.40
2018-09-19T09:55:02.369Z,81.20
2018-09-19T09:57:31.410Z,81.20
2018-09-19T10:00:00.410Z,81.00
2018-09-19T10:02:29.563Z,80.30
2018-09-19T10:04:58.625Z,79.70
2018-09-19T10:07:27.694Z,79.80
2018-09-19T10:09:57.836Z,79.70
2018-09-19T10:12:26.976Z,79.00
2018-09-19T10:14:56.082Z,78.90
2018-09-19T10:17:25.051Z,78.70
2018-09-19T10:19:54.057Z,78.40
2018-09-19T10:22:23.083Z,78.70
2018-09-19T10:24:53.102Z,78.60
2018-09-19T10:27:22.082Z,78.40
2018-09-19T10:29:51.128Z,77.90
2018-09-19T10:32:20.202Z,79.50
2018-09-19T10:34:49.402Z,78.50
2018-09-19T10:37:18.484Z,78.20
2018-09-19T10:39:47.674Z,78.50
2018-09-19T10:42:16.738Z,78.50
2018-09-19T10:44:45.783Z,79.00
2018-09-19T10:47:14.950Z,78.70
2018-09-19T10:49:43.995Z,78.00
2018-09-19T10:52:13.073Z,78.20
2018-09-19T10:54:42.166Z,77.00
2018-09-19T10:57:11.252Z,77.00
2018-09-19T10:59:40.539Z,76.90
2018-09-19T11:02:09.583Z,77.40
2018-09-19T11:04:38.715Z,76.00
2018-09-19T11:07:07.866Z,75.50
2018-09-19T11:09:36.951Z,75.30
2018-09-19T11:12:06.048Z,75.80
2018-09-19T11:14:35.236Z,76.20
2018-09-19T11:17:04.502Z,75.30
2018-09-19T11:19:33.637Z,74.70
2018-09-19T11:22:02.852Z,75.70
2018-09-19T11:24:31.908Z,75.40
2018-09-19T11:27:01.071Z,74.90
2018-09-19T11:29:30.150Z,75.50
2018-09-19T11:31:59.195Z,74.60
2018-09-19T11:34:28.625Z,74.60
2018-09-19T11:36:58.931Z,74.30
2018-09-19T11:39:28.039Z,74.90
2018-09-19T11:41:57.216Z,74.80
2018-09-19T11:44:26.333Z,74.50
2018-09-19T11:46:55.533Z,75.00
2018-09-19T11:49:24.617Z,74.70
2018-09-19T11:51:53.765Z,74.40
2018-09-19T11:54:22.869Z,74.40
2018-09-19T11:56:51.945Z,74.60
2018-09-19T11:59:20.993Z,74.80
2018-09-19T12:01:50.187Z,74.70
2018-09-19T12:04:19.877Z,74.80
2018-09-19T12:06:48.975Z,74.80
2018-09-19T12:09:17.993Z,73.30
2018-09-19T12:11:47.033Z,75.10
2018-09-19T12:14:16.157Z,73.80
2018-09-19T12:16:45.173Z,73.30
2018-09-19T12:19:14.169Z,72.40
2018-09-19T12:21:43.241Z,72.40
2018-09-19T12:24:12.292Z,72.80
2018-09-19T12:26:41.584Z,71.90
2018-09-19T12:29:10.765Z,72.30
2018-09-19T12:31:39.904Z,72.80
2018-09-19T12:34:09.077Z,71.90
2018-09-19T12:36:38.826Z,72.60
2018-09-19T12:39:09.316Z,72.70
2018-09-19T12:41:42.907Z,72.50
2018-09-19T12:44:12.154Z,72.20
2018-09-19T12:46:41.376Z,71.90
2018-09-19T12:49:10.436Z,71.10
2018-09-19T12:51:39.476Z,71.20
2018-09-19T12:54:08.612Z,71.80
2018-09-19T12:56:37.743Z,71.50
2018-09-19T12:59:06.854Z,70.70
2018-09-19T13:01:35.900Z,70.80
2018-09-19T13:04:04.956Z,71.10
2018-09-19T13:06:34.114Z,70.60
2018-09-19T13:09:03.162Z,70.10
2018-09-19T13:11:32.235Z,69.60
2018-09-19T13:14:01.366Z,70.30
2018-09-19T13:16:30.551Z,69.00
2018-09-19T13:18:59.620Z,69.70
2018-09-19T13:21:28.626Z,69.70
2018-09-19T13:23:57.736Z,70.00
2018-09-19T13:26:26.948Z,69.30
2018-09-19T13:28:56.038Z,68.90
2018-09-19T13:31:25.147Z,69.30
2018-09-19T13:33:54.172Z,68.70
2018-09-19T13:36:23.322Z,68.60
2018-09-19T13:38:52.425Z,67.90
2018-09-19T13:41:21.550Z,68.10
2018-09-19T13:43:50.624Z,67.70
2018-09-19T13:46:19.802Z,67.70
2018-09-19T13:48:54.059Z,67.70
2018-09-19T13:51:24.650Z,66.80
2018-09-19T13:53:53.933Z,66.30
2018-09-19T13:56:23.066Z,67.40
2018-09-19T13:58:52.234Z,67.40
2018-09-19T14:01:21.383Z,67.00
2018-09-19T14:03:51.052Z,66.80
2018-09-19T14:06:20.158Z,67.40
2018-09-19T14:08:49.274Z,67.00
2018-09-19T14:11:18.376Z,66.20
2018-09-19T14:13:47.446Z,66.40
2018-09-19T14:16:16.633Z,66.00
2018-09-19T14:18:46.081Z,65.00
2018-09-19T14:21:16.052Z,65.40
2018-09-19T14:23:45.368Z,65.10
2018-09-19T14:26:14.548Z,65.20
2018-09-19T14:28:43.642Z,65.50
2018-09-19T14:31:12.698Z,65.60
2018-09-19T14:33:41.746Z,66.00
2018-09-19T14:36:10.838Z,66.20
2018-09-19T14:38:39.952Z,65.10
2018-09-19T14:41:09.155Z,65.00
2018-09-19T14:43:38.216Z,64.40
2018-09-19T14:46:07.315Z,64.90
2018-09-19T14:48:36.509Z,64.40
2018-09-19T14:51:05.642Z,64.60
2018-09-19T14:53:34.698Z,65.50
2018-09-19T14:56:03.886Z,64.70
2018-09-19T14:58:33.040Z,64.90
2018-09-19T15:01:02.827Z,65.40
2018-09-19T15:03:31.910Z,64.80
2018-09-19T15:06:01.132Z,64.80
2018-09-19T15:08:30.234Z,64.30
2018-09-19T15:10:59.514Z,65.00
2018-09-19T15:13:28.796Z,65.50
2018-09-19T15:15:57.872Z,65.10
2018-09-19T15:18:26.996Z,65.10
2018-09-19T15:20:56.120Z,64.20
2018-09-19T15:23:25.182Z,63.80
2018-09-19T15:25:54.946Z,64.40
2018-09-19T15:28:24.151Z,64.20
2018-09-19T15:30:53.437Z,64.50
2018-09-19T15:33:22.602Z,63.10
2018-09-19T15:35:52.920Z,63.60
2018-09-19T15:38:36.451Z,62.80
2018-09-19T15:41:05.522Z,63.00
2018-09-19T15:43:34.582Z,63.80
2018-09-19T15:46:03.616Z,63.40
2018-09-19T15:48:32.764Z,63.50
2018-09-19T15:51:01.891Z,63.30
2018-09-19T15:53:31.750Z,62.90
2018-09-19T15:56:02.273Z,62.90
2018-09-19T15:58:31.474Z,63.10
2018-09-19T16:01:00.567Z,62.80
2018-09-19T16:03:29.749Z,62.30
2018-09-19T16:05:58.825Z,62.40
2018-09-19T16:08:27.863Z,62.50
2018-09-19T16:10:56.931Z,62.60
2018-09-19T16:13:26.126Z,62.30
2018-09-19T16:15:55.161Z,62.50
2018-09-19T16:18:24.199Z,62.90
2018-09-19T16:20:53.788Z,63.40
2018-09-19T16:23:22.845Z,63.40
2018-09-19T16:25:51.913Z,63.20
2018-09-19T16:28:21.109Z,63.20
2018-09-19T16:30:50.335Z,63.70
2018-09-19T16:33:19.393Z,64.00
2018-09-19T16:35:48.525Z,63.80
2018-09-19T16:38:17.715Z,63.20
2018-09-19T16:40:46.787Z,63.80
2018-09-19T16:43:15.979Z,63.30
2018-09-19T16:45:45.008Z,63.20
2018-09-19T16:48:14.165Z,63.50
2018-09-19T16:50:43.239Z,63.50
2018-09-19T16:53:12.421Z,63.20
2018-09-19T16:55:41.506Z,63.40
2018-09-19T16:58:10.655Z,63.30
2018-09-19T17:00:41.169Z,63.30
2018-09-19T17:03:10.305Z,63.00
2018-09-19T17:05:39.489Z,63.10
2018-09-19T17:08:08.683Z,62.90
2018-09-19T17:10:37.741Z,63.00
2018-09-19T17:13:08.000Z,63.20
2018-09-19T17:15:37.156Z,63.40
2018-09-19T17:18:06.739Z,63.50
2018-09-19T17:20:36.177Z,63.50
2018-09-19T17:23:05.250Z,63.60
2018-09-19T17:25:34.444Z,63.80
2018-09-19T17:28:03.614Z,64.00
2018-09-19T17:30:32.922Z,64.00
2018-09-19T17:33:02.452Z,64.10
2018-09-19T17:35:32.563Z,64.10
2018-09-19T17:38:01.727Z,64.20
2018-09-19T17:40:30.826Z,64.30
2018-09-19T17:42:59.962Z,64.30
2018-09-19T17:45:29.082Z,64.40
2018-09-19T17:47:58.346Z,64.50
2018-09-19T17:50:27.560Z,64.40
2018-09-19T17:52:56.658Z,64.50
2018-09-19T17:55:25.922Z,64.50
2018-09-19T17:57:55.100Z,64.50
2018-09-19T18:00:24.255Z,64.60
2018-09-19T18:02:53.341Z,64.70
2018-09-19T18:05:22.312Z,64.70
2018-09-19T18:07:51.482Z,65.50
2018-09-19T18:10:20.610Z,64.90
2018-09-19T18:12:49.750Z,64.90
2018-09-19T18:15:18.762Z,65.00
2018-09-19T18:17:47.808Z,65.00
2018-09-19T18:20:16.846Z,65.00
2018-09-19T18:22:45.968Z,65.10
2018-09-19T18:25:14.984Z,65.10
2018-09-19T18:27:44.216Z,65.10
2018-09-19T18:30:13.280Z,65.10
2018-09-19T18:32:42.408Z,65.00
2018-09-19T18:35:11.466Z,65.10
2018-09-19T18:37:40.599Z,65.10
2018-09-19T18:40:09.733Z,65.00
2018-09-19T18:42:38.714Z,65.10
2018-09-19T18:45:10.461Z,65.20
2018-09-19T18:47:39.457Z,65.10
2018-09-19T18:50:14.036Z,65.20
2018-09-19T18:52:57.421Z,65.20
2018-09-19T18:55:29.831Z,65.20
2018-09-19T18:57:58.821Z,65.30
2018-09-19T19:00:27.965Z,65.30
2018-09-19T19:02:57.015Z,65.30
2018-09-19T19:05:26.095Z,65.30
2018-09-19T19:07:55.260Z,65.50
2018-09-19T19:10:24.359Z,65.60
2018-09-19T19:12:53.424Z,65.90
2018-09-19T19:15:22.549Z,65.90
2018-09-19T19:17:51.631Z,65.90
2018-09-19T19:20:20.731Z,65.90
2018-09-19T19:22:49.765Z,66.00
2018-09-19T19:25:18.813Z,65.90
2018-09-19T19:27:47.869Z,66.00
2018-09-19T19:30:16.902Z,66.20
2018-09-19T19:32:46.085Z,66.20
2018-09-19T19:35:16.411Z,66.20
2018-09-19T19:37:45.704Z,66.40
2018-09-19T19:40:14.741Z,66.40
2018-09-19T19:42:43.953Z,66.30
2018-09-19T19:45:20.148Z,66.40
2018-09-19T19:47:49.289Z,66.40
2018-09-19T19:50:18.393Z,66.40
2018-09-19T19:52:48.040Z,66.50
2018-09-19T19:55:17.308Z,66.50
2018-09-19T19:57:46.341Z,66.50
2018-09-19T20:00:15.498Z,66.60
2018-09-19T20:02:44.572Z,66.60
2018-09-19T20:05:13.683Z,66.60
2018-09-19T20:07:42.723Z,66.50
2018-09-19T20:10:12.448Z,66.80
2018-09-19T20:12:41.637Z,66.70
2018-09-19T20:15:10.723Z,66.60
2018-09-19T20:17:39.838Z,66.70
2018-09-19T20:20:09.222Z,66.80
2018-09-19T20:22:38.348Z,66.70
2018-09-19T20:25:07.430Z,66.70
2018-09-19T20:27:36.528Z,66.80
2018-09-19T20:30:06.204Z,66.80
2018-09-19T20:32:35.205Z,66.80
2018-09-19T20:35:04.398Z,66.90
2018-09-19T20:37:33.506Z,66.80
2018-09-19T20:40:02.646Z,66.90
2018-09-19T20:42:31.620Z,66.80
2018-09-19T20:45:00.670Z,66.90
2018-09-19T20:47:29.790Z,67.00
2018-09-19T20:50:00.483Z,67.00
2018-09-19T20:52:29.519Z,67.20
2018-09-19T20:54:59.989Z,67.20
2018-09-19T20:57:29.291Z,67.10
2018-09-19T20:59:58.441Z,67.20
2018-09-19T21:02:27.608Z,67.30
2018-09-19T21:04:56.619Z,67.40
2018-09-19T21:07:25.831Z,67.40
2018-09-19T21:10:00.018Z,67.50
2018-09-19T21:12:29.040Z,67.50
2018-09-19T21:14:58.174Z,67.60
2018-09-19T21:17:27.330Z,67.70
2018-09-19T21:19:56.426Z,67.80
2018-09-19T21:22:25.702Z,67.70
2018-09-19T21:24:54.598Z,67.80
2018-09-19T21:27:23.584Z,67.80
2018-09-19T21:29:52.710Z,67.80
2018-09-19T21:32:21.986Z,67.80
2018-09-19T21:34:50.994Z,67.90
2018-09-19T21:37:20.078Z,67.90
2018-09-19T21:39:49.106Z,67.90
2018-09-19T21:42:18.183Z,67.90
2018-09-19T21:44:58.463Z,68.00
2018-09-19T21:47:27.469Z,67.90
2018-09-19T21:49:56.549Z,68.00
2018-09-19T21:52:25.662Z,68.20
2018-09-19T21:54:54.739Z,68.20
2018-09-19T21:57:23.869Z,68.30
2018-09-19T21:59:52.917Z,68.40
2018-09-19T22:02:22.078Z,68.30
2018-09-19T22:04:51.133Z,68.30
2018-09-19T22:07:20.255Z,68.90
2018-09-19T22:09:49.261Z,68.40
2018-09-19T22:12:18.393Z,68.20
2018-09-19T22:14:47.491Z,68.40
2018-09-19T22:17:16.565Z,68.40
2018-09-19T22:19:45.599Z,68.50
2018-09-19T22:22:14.639Z,68.50
2018-09-19T22:24:43.651Z,68.50
2018-09-19T22:27:12.726Z,68.60
2018-09-19T22:29:41.759Z,68.60
2018-09-19T22:32:10.896Z,68.60
2018-09-19T22:34:39.985Z,68.60
2018-09-19T22:37:09.082Z,68.50
2018-09-19T22:39:38.149Z,68.60
2018-09-19T22:42:07.339Z,69.40
2018-09-19T22:44:37.155Z,68.60
2018-09-19T22:47:06.478Z,68.60
2018-09-19T22:49:35.572Z,68.60
2018-09-19T22:52:04.652Z,68.50
2018-09-19T22:54:33.710Z,69.30
2018-09-19T22:57:02.724Z,68.80
2018-09-19T22:59:31.815Z,68.90
2018-09-19T23:02:00.981Z,68.90
2018-09-19T23:04:30.220Z,68.80
2018-09-19T23:06:59.422Z,68.90
2018-09-19T23:09:28.494Z,68.80
2018-09-19T23:11:57.638Z,68.70
2018-09-19T23:14:26.678Z,68.80
2018-09-19T23:16:55.886Z,68.80
2018-09-19T23:19:24.982Z,68.70
2018-09-19T23:21:54.082Z,68.70
2018-09-19T23:24:23.162Z,68.80
2018-09-19T23:26:52.174Z,68.70
2018-09-19T23:29:21.288Z,68.80
2018-09-19T23:31:50.356Z,68.80
2018-09-19T23:34:19.331Z,68.80
2018-09-19T23:36:48.386Z,68.80
2018-09-19T23:39:17.410Z,68.70
2018-09-19T23:41:46.548Z,68.80
2018-09-19T23:44:15.611Z,69.20
2018-09-19T23:46:44.620Z,68.80
2018-09-19T23:49:13.725Z,68.90
2018-09-19T23:51:42.852Z,68.90
2018-09-19T23:54:11.941Z,68.90
2018-09-19T23:56:40.989Z,68.80
2018-09-19T23:59:10.038Z,68.90
